Madison, Tennessee
Current Conditions -  °F | °C
As of 7:53 PM on Thursday 20 Nov 2014 (Local Time) from KBNA Reporting Station
Clear Clear  
Wind Chill: 34°   Ceiling: Unl
Heat Index: 34°   Visibility: 10mi
Dew Point: 23°   Wind: 0mph
Humidity: 64%   Direction: NA
Pressure: 30.27"   Gusts: NA
Location:  36.26°N, 86.71°W
Report Text: KBNA 210153Z 00000KT 10SM CLR 01/M05 A3027 RMK AO2 SLP253 T00111050
Loading
Personal Weather Stations






























Interactive Weather Map New forecast layout! Learn more

10-Day Weather Forecast

Advertisements
Track Severe Weather on mobile